Time;durP1;ratioP1;P1;durP2;ratioP2;P2;SDS_P1;SDS_P2;PMS_P1;PMS_P2;Temp;Humidity;BMP_temperature;BMP_pressure;BME280_temperature;BME280_humidity;BME280_pressure;Samples;Min_cycle;Max_cycle;Signal;HPM_P1;HPM_P2
2020/12/05 00:00:09;;;;;;;10.48;7.90;;;;;;;12.22;52.99;98616.06;4993775;27;101811;-59
2020/12/05 00:02:35;;;;;;;11.07;8.60;;;;;;;12.23;52.98;98615.75;5008310;27;106290;-59
2020/12/05 00:05:01;;;;;;;11.15;8.68;;;;;;;12.24;53.13;98621.97;5018087;27;99067;-59
2020/12/05 00:07:27;;;;;;;9.88;8.50;;;;;;;12.25;53.10;98637.03;5004000;27;99736;-59
2020/12/05 00:09:53;;;;;;;9.80;7.93;;;;;;;12.26;53.21;98650.25;4999055;27;126727;-60
2020/12/05 00:12:20;;;;;;;10.48;8.13;;;;;;;12.26;53.26;98638.63;5004390;27;109314;-59
2020/12/05 00:14:46;;;;;;;10.65;8.60;;;;;;;12.26;53.18;98617.00;4988295;27;98748;-61
2020/12/05 00:17:12;;;;;;;10.10;8.48;;;;;;;12.27;52.75;98613.22;5004254;27;128172;-59
2020/12/05 00:19:38;;;;;;;8.95;7.93;;;;;;;12.27;53.23;98621.31;5003819;27;126521;-60
2020/12/05 00:22:04;;;;;;;10.35;8.40;;;;;;;12.28;52.82;98623.69;5023910;27;97624;-60
2020/12/05 00:24:30;;;;;;;10.02;8.20;;;;;;;12.29;53.67;98619.06;5003282;27;126717;-59
2020/12/05 00:26:56;;;;;;;10.65;8.25;;;;;;;12.32;52.89;98617.66;5022848;27;128057;-59
2020/12/05 00:29:22;;;;;;;9.30;8.35;;;;;;;12.34;52.56;98602.72;5022548;27;126777;-59
2020/12/05 00:31:50;;;;;;;9.75;8.05;;;;;;;12.39;52.56;98601.72;5024302;27;98030;-61
2020/12/05 00:34:16;;;;;;;10.45;8.30;;;;;;;12.44;52.28;98606.94;5023289;27;98753;-60
2020/12/05 00:36:42;;;;;;;9.90;8.27;;;;;;;12.46;52.29;98602.81;5023252;27;99065;-61
2020/12/05 00:39:08;;;;;;;9.38;7.65;;;;;;;12.47;52.37;98607.09;5022900;27;127555;-61
2020/12/05 00:41:34;;;;;;;11.10;8.80;;;;;;;12.49;52.23;98598.66;5023956;27;97795;-58
2020/12/05 00:44:01;;;;;;;11.45;8.80;;;;;;;12.51;51.87;98604.53;5022906;27;104706;-61
2020/12/05 00:46:27;;;;;;;8.80;7.63;;;;;;;12.46;51.95;98608.22;5023404;27;98283;-60
2020/12/05 00:48:53;;;;;;;10.30;8.23;;;;;;;12.50;51.84;98619.19;4987028;27;127513;-60
2020/12/05 00:51:19;;;;;;;9.40;8.10;;;;;;;12.51;52.03;98610.72;5004013;27;117953;-59
2020/12/05 00:53:45;;;;;;;9.18;7.70;;;;;;;12.51;52.36;98608.03;5022436;27;128034;-62
2020/12/05 00:56:11;;;;;;;9.48;8.00;;;;;;;12.53;51.92;98621.22;5021953;27;128363;-62
2020/12/05 00:58:38;;;;;;;11.00;8.30;;;;;;;12.49;51.31;98622.97;5003286;27;127796;-59
2020/12/05 01:01:05;;;;;;;10.50;8.05;;;;;;;12.49;51.23;98623.75;5021603;27;98100;-61
2020/12/05 01:03:31;;;;;;;10.32;8.00;;;;;;;12.51;51.36;98623.47;5023722;27;98533;-59
2020/12/05 01:05:58;;;;;;;8.80;7.40;;;;;;;12.52;51.69;98617.72;5021646;27;116719;-59
2020/12/05 01:08:24;;;;;;;9.98;7.90;;;;;;;12.53;51.46;98624.69;5004731;27;97964;-60
2020/12/05 01:10:50;;;;;;;9.63;7.95;;;;;;;12.52;51.70;98619.63;5022176;27;118192;-61
2020/12/05 01:13:16;;;;;;;10.20;8.32;;;;;;;12.53;51.61;98621.22;5025036;27;98574;-59
2020/12/05 01:15:42;;;;;;;10.10;7.75;;;;;;;12.53;51.78;98613.09;5026030;27;109257;-61
2020/12/05 01:18:09;;;;;;;9.57;7.78;;;;;;;12.57;51.92;98618.66;5006985;27;126690;-59
2020/12/05 01:20:35;;;;;;;9.95;7.75;;;;;;;12.55;52.09;98620.91;5006669;27;117838;-62
2020/12/05 01:23:01;;;;;;;10.25;8.10;;;;;;;12.58;52.08;98621.03;5025114;27;127549;-60
2020/12/05 01:25:27;;;;;;;9.65;7.57;;;;;;;12.57;52.20;98611.34;5027138;27;106294;-59
2020/12/05 01:27:53;;;;;;;9.60;7.57;;;;;;;12.57;52.09;98615.94;5025750;27;127766;-59
2020/12/05 01:30:19;;;;;;;9.23;7.90;;;;;;;12.57;52.00;98616.75;5025860;27;117841;-59
2020/12/05 01:32:45;;;;;;;9.77;7.82;;;;;;;12.57;51.73;98614.03;5006578;27;112864;-59
2020/12/05 01:35:11;;;;;;;9.20;7.50;;;;;;;12.58;51.85;98621.03;5005809;27;129033;-60
2020/12/05 01:37:37;;;;;;;9.23;7.68;;;;;;;12.58;51.88;98612.16;5025401;27;127646;-60
2020/12/05 01:40:03;;;;;;;8.93;7.53;;;;;;;12.57;51.68;98613.25;5026816;27;97938;-59
2020/12/05 01:42:29;;;;;;;8.88;7.30;;;;;;;12.57;51.58;98610.53;4990621;27;100248;-60
2020/12/05 01:44:55;;;;;;;9.93;7.68;;;;;;;12.57;51.27;98618.66;5007113;27;99259;-60
2020/12/05 01:47:23;;;;;;;9.52;7.60;;;;;;;12.59;51.81;98624.53;5024900;27;127765;-60
2020/12/05 01:49:50;;;;;;;9.15;7.45;;;;;;;12.60;51.59;98620.72;5008453;27;97735;-59
2020/12/05 01:52:16;;;;;;;8.85;7.10;;;;;;;12.62;51.86;98621.19;4990349;27;102489;-59
2020/12/05 01:54:42;;;;;;;9.50;7.28;;;;;;;12.62;51.86;98608.47;4989810;27;128384;-59
2020/12/05 01:57:09;;;;;;;8.63;6.97;;;;;;;12.63;52.08;98601.94;4988482;27;125765;-60
2020/12/05 01:59:35;;;;;;;8.95;6.97;;;;;;;12.63;52.11;98604.63;5025912;27;97661;-62
2020/12/05 02:02:03;;;;;;;8.38;7.00;;;;;;;12.64;51.94;98600.81;5025203;27;127316;-61
2020/12/05 02:04:32;;;;;;;9.43;8.05;;;;;;;12.66;52.05;98606.69;5024499;27;99401;-61
2020/12/05 02:07:30;;;;;;;7.63;6.82;;;;;;;12.63;52.29;98611.97;5006665;27;115398;-61
2020/12/05 02:09:56;;;;;;;8.32;7.03;;;;;;;12.65;51.99;98615.91;5008685;27;98201;-59
2020/12/05 02:12:44;;;;;;;8.30;7.30;;;;;;;12.64;52.07;98610.84;4989883;27;120352;-60
2020/12/05 02:15:14;;;;;;;7.72;6.55;;;;;;;12.66;52.29;98614.03;5006331;27;98176;-62
2020/12/05 02:17:43;;;;;;;8.50;6.97;;;;;;;12.69;52.35;98616.03;4989673;27;98723;-59
2020/12/05 02:20:09;;;;;;;8.52;7.55;;;;;;;12.69;52.07;98614.16;4990359;27;97884;-60
2020/12/05 02:22:40;;;;;;;8.65;7.30;;;;;;;12.71;52.30;98613.81;4972790;27;99302;-59
2020/12/05 02:25:06;;;;;;;8.43;6.78;;;;;;;12.71;52.47;98613.81;5005750;27;106993;-59
2020/12/05 02:27:34;;;;;;;8.18;6.75;;;;;;;12.70;52.52;98613.03;5024465;27;98889;-61
2020/12/05 02:30:01;;;;;;;7.85;6.97;;;;;;;12.74;52.42;98613.19;5007576;27;98075;-60
2020/12/05 02:32:27;;;;;;;8.63;6.82;;;;;;;12.71;52.54;98622.72;5025740;27;97906;-59
2020/12/05 02:34:54;;;;;;;8.43;7.15;;;;;;;12.74;52.61;98607.78;5027108;27;99031;-60
2020/12/05 02:37:24;;;;;;;8.32;6.55;;;;;;;12.72;52.41;98605.38;5024891;27;97798;-60
2020/12/05 02:39:50;;;;;;;8.18;6.70;;;;;;;12.72;52.57;98610.78;5026104;27;105582;-62
2020/12/05 02:42:16;;;;;;;8.38;6.85;;;;;;;12.73;52.25;98608.88;4988524;27;126933;-60
2020/12/05 02:44:50;;;;;;;8.48;6.65;;;;;;;12.72;52.38;98602.69;5024064;27;128021;-59
2020/12/05 02:47:16;;;;;;;7.75;6.22;;;;;;;12.74;52.41;98607.78;5024697;27;97970;-59
2020/12/05 02:49:43;;;;;;;8.15;6.82;;;;;;;12.74;52.56;98599.66;5024639;27;109999;-59
2020/12/05 02:52:09;;;;;;;7.55;6.57;;;;;;;12.74;52.64;98622.09;5005810;27;101156;-59
2020/12/05 02:54:35;;;;;;;8.45;6.75;;;;;;;12.76;52.45;98613.63;5025359;27;97887;-59
2020/12/05 02:57:01;;;;;;;7.93;6.65;;;;;;;12.76;52.52;98610.94;5025130;27;105332;-59
2020/12/05 02:59:28;;;;;;;8.15;6.70;;;;;;;12.75;52.26;98617.47;5027305;27;97723;-60
2020/12/05 03:01:55;;;;;;;8.00;6.43;;;;;;;12.73;52.58;98615.09;5023928;27;120311;-60
2020/12/05 03:04:21;;;;;;;9.35;6.53;;;;;;;12.74;52.45;98635.59;5024308;27;111773;-60
2020/12/05 03:06:47;;;;;;;8.00;6.78;;;;;;;12.74;52.13;98643.72;5024343;27;127627;-59
2020/12/05 03:09:13;;;;;;;7.72;6.80;;;;;;;12.76;52.03;98646.06;5024238;27;116412;-59
2020/12/05 03:11:41;;;;;;;7.40;6.60;;;;;;;12.77;52.05;98651.19;5024151;27;99329;-60
2020/12/05 03:14:07;;;;;;;8.70;6.78;;;;;;;12.78;52.19;98649.25;4988867;27;98579;-59
2020/12/05 03:16:33;;;;;;;7.65;6.40;;;;;;;12.78;52.28;98636.53;5005055;27;126780;-60
2020/12/05 03:18:59;;;;;;;7.57;6.45;;;;;;;12.80;52.75;98624.59;5024210;27;111624;-59
2020/12/05 03:21:25;;;;;;;8.43;6.82;;;;;;;12.80;52.90;98619.97;5023109;27;128830;-62
2020/12/05 03:23:51;;;;;;;7.45;5.93;;;;;;;12.82;52.43;98606.94;5024030;27;116565;-61
2020/12/05 03:26:17;;;;;;;7.45;6.03;;;;;;;12.80;52.83;98600.25;5004491;27;99316;-61
2020/12/05 03:28:44;;;;;;;7.35;6.15;;;;;;;12.81;52.41;98591.03;5006022;27;110295;-61
2020/12/05 03:31:18;;;;;;;6.53;5.82;;;;;;;12.80;52.82;98579.41;5023933;27;98707;-59
2020/12/05 03:33:45;;;;;;;8.77;6.20;;;;;;;12.80;52.78;98582.13;5024268;27;98495;-59
2020/12/05 03:36:11;;;;;;;7.82;6.13;;;;;;;12.82;52.94;98566.38;5004170;27;97988;-59
2020/12/05 03:38:37;;;;;;;7.70;6.13;;;;;;;12.81;52.87;98554.00;5005417;27;118852;-60
2020/12/05 03:41:03;;;;;;;6.97;5.60;;;;;;;12.82;52.33;98544.75;5022980;27;128034;-61
2020/12/05 03:43:29;;;;;;;7.05;5.82;;;;;;;12.80;52.19;98517.25;5023493;27;128311;-59
2020/12/05 03:45:55;;;;;;;7.32;5.88;;;;;;;12.81;52.01;98483.69;5022986;27;127523;-59
2020/12/05 03:48:21;;;;;;;6.80;5.85;;;;;;;12.81;52.18;98459.38;5023525;27;117503;-59
2020/12/05 03:50:47;;;;;;;7.78;6.15;;;;;;;12.84;52.21;98460.59;5024177;27;98826;-58
2020/12/05 03:53:13;;;;;;;7.78;5.82;;;;;;;12.85;52.51;98484.63;5022862;27;128980;-59
2020/12/05 03:55:39;;;;;;;6.95;5.22;;;;;;;12.85;52.32;98503.53;5023126;27;128237;-59
2020/12/05 03:58:05;;;;;;;6.38;5.20;;;;;;;12.86;52.58;98512.44;5024623;27;98347;-59
2020/12/05 04:00:32;;;;;;;6.40;5.20;;;;;;;12.86;52.69;98515.94;4986625;27;126183;-59
2020/12/05 04:02:58;;;;;;;6.35;5.57;;;;;;;12.85;52.61;98516.25;5004109;27;128437;-60
2020/12/05 04:05:24;;;;;;;6.60;5.18;;;;;;;12.84;52.72;98510.06;5004429;27;128246;-60
2020/12/05 04:07:50;;;;;;;6.80;5.45;;;;;;;12.84;52.74;98511.97;5022989;27;117854;-59
2020/12/05 04:10:16;;;;;;;6.63;5.05;;;;;;;12.84;52.83;98526.28;5022258;27;128024;-60
2020/12/05 04:12:42;;;;;;;5.38;4.78;;;;;;;12.83;52.96;98530.09;5022751;27;128149;-60
2020/12/05 04:15:08;;;;;;;5.82;4.97;;;;;;;12.83;52.64;98527.41;5022888;27;127510;-59
2020/12/05 04:17:34;;;;;;;6.43;4.95;;;;;;;12.82;52.97;98506.91;5023112;27;118492;-58
2020/12/05 04:20:00;;;;;;;6.28;5.10;;;;;;;12.81;53.05;98502.63;5023288;27;98428;-59
2020/12/05 04:22:26;;;;;;;5.75;5.13;;;;;;;12.83;53.21;98502.28;5023060;27;127995;-59
2020/12/05 04:24:52;;;;;;;6.97;5.05;;;;;;;12.80;53.06;98506.41;5023077;27;101094;-59
2020/12/05 04:27:18;;;;;;;6.38;5.07;;;;;;;12.84;53.05;98509.25;4987011;27;118677;-60
2020/12/05 04:29:44;;;;;;;5.75;4.80;;;;;;;12.82;53.14;98498.00;5004259;27;126910;-59
2020/12/05 04:32:10;;;;;;;6.60;5.20;;;;;;;12.83;53.25;98494.97;5022405;27;127042;-62
2020/12/05 04:34:36;;;;;;;5.78;5.10;;;;;;;12.82;53.26;98509.59;5022162;27;127798;-61
2020/12/05 04:37:02;;;;;;;5.55;4.93;;;;;;;12.82;53.37;98549.38;5022877;27;117865;-60
2020/12/05 04:39:28;;;;;;;5.97;4.85;;;;;;;12.86;53.16;98566.53;5023342;27;128601;-59
2020/12/05 04:41:54;;;;;;;6.10;5.15;;;;;;;12.84;53.24;98560.63;5022502;27;126954;-59
2020/12/05 04:44:20;;;;;;;5.93;5.07;;;;;;;12.84;53.35;98530.91;5003845;27;125409;-59
2020/12/05 04:46:46;;;;;;;6.07;5.13;;;;;;;12.85;53.01;98546.00;4990078;27;98071;-60
2020/12/05 04:49:12;;;;;;;5.65;4.80;;;;;;;12.85;53.64;98532.47;4974044;27;101065;-62
2020/12/05 04:51:39;;;;;;;5.72;4.68;;;;;;;12.86;53.34;98523.25;4990885;27;126980;-59
2020/12/05 04:54:08;;;;;;;5.97;4.75;;;;;;;12.84;53.12;98534.38;5027029;27;97917;-59
2020/12/05 04:56:38;;;;;;;5.53;4.43;;;;;;;12.84;53.21;98552.53;5026208;27;117834;-59
2020/12/05 04:59:09;;;;;;;6.95;4.85;;;;;;;12.89;53.37;98555.03;5025935;27;109624;-59
2020/12/05 05:01:37;;;;;;;5.88;4.65;;;;;;;12.87;53.28;98549.97;5026744;27;98560;-60
2020/12/05 05:04:04;;;;;;;6.22;4.82;;;;;;;12.88;53.37;98534.53;5008063;27;97832;-60
2020/12/05 05:06:30;;;;;;;5.63;4.60;;;;;;;12.87;53.56;98528.31;4991527;27;97977;-60
2020/12/05 05:08:56;;;;;;;5.30;4.38;;;;;;;12.90;53.56;98519.56;5026402;27;98342;-59
2020/12/05 05:11:25;;;;;;;5.55;4.85;;;;;;;12.90;53.21;98508.75;4990531;27;102413;-60
2020/12/05 05:13:59;;;;;;;5.10;4.57;;;;;;;12.91;53.22;98513.03;5027325;27;98119;-60
2020/12/05 05:16:28;;;;;;;5.63;4.70;;;;;;;12.91;53.51;98537.38;5009183;27;98068;-61
2020/12/05 05:18:54;;;;;;;6.45;4.55;;;;;;;12.92;53.54;98549.75;5008431;27;98641;-60
2020/12/05 05:21:40;;;;;;;5.78;4.70;;;;;;;12.89;53.61;98546.91;5025766;27;109411;-58
2020/12/05 05:24:16;;;;;;;5.15;4.40;;;;;;;12.91;53.66;98561.69;5007545;27;98188;-60
2020/12/05 05:26:43;;;;;;;5.45;4.60;;;;;;;12.93;53.46;98567.59;5008906;27;97893;-60
2020/12/05 05:29:28;;;;;;;5.65;4.13;;;;;;;12.92;53.57;98582.19;5026455;27;98263;-60
2020/12/05 05:32:18;;;;;;;5.40;4.70;;;;;;;12.95;53.31;98584.25;5008612;27;98342;-60
2020/12/05 05:34:46;;;;;;;4.85;4.35;;;;;;;12.96;53.40;98583.13;5026176;27;98360;-59
2020/12/05 05:37:17;;;;;;;4.95;4.13;;;;;;;12.95;53.13;98586.97;5008387;27;98045;-60
2020/12/05 05:39:55;;;;;;;5.63;4.55;;;;;;;12.95;53.32;98591.59;5026425;27;98332;-59
2020/12/05 05:42:54;;;;;;;5.45;4.50;;;;;;;12.98;53.30;98588.22;5025505;27;98318;-59
2020/12/05 05:45:25;;;;;;;4.85;4.28;;;;;;;13.01;53.31;98596.47;5023819;27;97806;-60
2020/12/05 05:48:02;;;;;;;5.43;4.10;;;;;;;13.03;53.38;98621.28;5026895;27;97798;-59
2020/12/05 05:50:35;;;;;;;4.90;4.05;;;;;;;13.03;53.48;98620.50;5025564;27;99177;-60
2020/12/05 05:53:03;;;;;;;5.22;4.05;;;;;;;13.07;53.65;98632.22;5025863;27;98875;-60
2020/12/05 05:55:46;;;;;;;4.97;4.05;;;;;;;13.05;53.72;98647.19;5024745;27;112211;-61
2020/12/05 05:58:22;;;;;;;5.57;4.38;;;;;;;13.10;53.67;98644.31;5025511;27;97913;-60
2020/12/05 06:00:49;;;;;;;5.00;4.00;;;;;;;13.09;53.81;98648.94;5025038;27;98768;-60
2020/12/05 06:03:22;;;;;;;4.15;3.75;;;;;;;13.11;53.83;98662.91;5026193;27;98456;-60
2020/12/05 06:05:50;;;;;;;4.97;3.95;;;;;;;13.12;53.65;98667.19;5025666;27;98458;-61
2020/12/05 06:08:35;;;;;;;4.70;4.20;;;;;;;13.10;53.66;98674.88;5025660;27;97884;-59
2020/12/05 06:11:10;;;;;;;6.28;4.20;;;;;;;13.12;53.86;98675.31;5005452;27;128224;-60
2020/12/05 06:13:36;;;;;;;4.72;3.95;;;;;;;13.13;53.79;98674.22;5007267;27;106805;-60
2020/12/05 06:16:03;;;;;;;4.75;4.00;;;;;;;13.13;53.73;98681.53;5023972;27;126859;-59
2020/12/05 06:18:29;;;;;;;5.47;4.03;;;;;;;13.14;53.92;98691.25;5024832;27;105506;-60
2020/12/05 06:20:55;;;;;;;4.70;3.90;;;;;;;13.12;53.55;98675.31;4988598;27;99108;-60
2020/12/05 06:24:05;;;;;;;5.38;4.20;;;;;;;13.09;53.93;98694.13;5024617;27;128589;-59
2020/12/05 06:26:34;;;;;;;5.95;4.20;;;;;;;13.13;53.89;98695.84;4946724;28;98568;-60
2020/12/05 06:29:01;;;;;;;5.20;4.70;;;;;;;13.14;53.78;98692.03;4961872;28;97945;-61
2020/12/05 06:31:42;;;;;;;5.30;4.20;;;;;;;13.11;53.79;98702.69;4968689;27;98293;-60
2020/12/05 06:34:09;;;;;;;6.47;4.47;;;;;;;13.13;53.84;98705.88;5025021;27;98889;-60
2020/12/05 06:36:37;;;;;;;5.70;4.50;;;;;;;13.13;53.79;98705.88;5006501;27;98237;-59
2020/12/05 06:39:06;;;;;;;4.53;4.00;;;;;;;13.11;53.79;98719.72;5025170;27;97826;-60
2020/12/05 06:41:39;;;;;;;4.28;3.85;;;;;;;13.11;53.83;98722.44;5024826;27;98124;-58
2020/12/05 06:44:33;;;;;;;4.57;3.88;;;;;;;13.07;53.81;98731.53;5025107;27;98496;-60
2020/12/05 06:47:04;;;;;;;5.60;4.50;;;;;;;13.07;54.17;98737.72;5023368;27;98223;-59
2020/12/05 06:49:36;;;;;;;5.20;4.23;;;;;;;13.07;53.86;98742.34;5022749;27;98023;-60
2020/12/05 06:52:24;;;;;;;5.28;4.57;;;;;;;13.02;54.06;98725.19;5021894;27;98489;-59
2020/12/05 06:55:02;;;;;;;5.15;4.47;;;;;;;13.07;53.93;98731.53;5022052;27;99572;-59
2020/12/05 06:57:32;;;;;;;5.25;3.88;;;;;;;13.08;53.74;98731.19;5021940;27;97964;-60
2020/12/05 07:00:23;;;;;;;4.82;3.90;;;;;;;13.08;53.83;98741.22;5022565;27;97833;-60
2020/12/05 07:02:59;;;;;;;5.00;4.30;;;;;;;13.10;53.94;98747.09;5007174;27;98402;-60
2020/12/05 07:05:36;;;;;;;5.55;4.70;;;;;;;13.12;53.96;98758.38;5021848;27;99135;-59
2020/12/05 07:08:27;;;;;;;5.85;4.75;;;;;;;13.15;54.12;98755.03;5021921;27;98473;-59
2020/12/05 07:11:03;;;;;;;5.47;4.70;;;;;;;13.14;53.99;98759.66;5020032;27;97952;-59
2020/12/05 07:13:51;;;;;;;5.28;4.70;;;;;;;13.18;53.96;98774.13;5021902;27;98317;-62
2020/12/05 07:16:29;;;;;;;6.20;4.72;;;;;;;13.17;53.98;98766.34;5021286;27;98362;-59
2020/12/05 07:18:57;;;;;;;5.10;4.53;;;;;;;13.22;53.95;98771.56;5003205;27;100038;-60
2020/12/05 07:21:25;;;;;;;5.55;4.40;;;;;;;13.25;54.15;98782.56;5022301;27;97886;-59
2020/12/05 07:23:52;;;;;;;6.15;5.13;;;;;;;13.26;54.09;98786.84;4985417;27;113705;-60
2020/12/05 07:26:18;;;;;;;6.10;4.95;;;;;;;13.32;54.37;98792.84;5022369;27;98534;-61
2020/12/05 07:28:48;;;;;;;7.00;5.00;;;;;;;13.30;54.32;98791.59;5022307;27;98498;-59
2020/12/05 07:31:15;;;;;;;5.20;4.47;;;;;;;13.36;54.29;98796.53;5020336;27;107491;-62
2020/12/05 07:33:42;;;;;;;6.95;5.20;;;;;;;13.40;54.40;98793.94;5021284;27;115881;-59
2020/12/05 07:36:09;;;;;;;6.18;5.35;;;;;;;13.42;54.37;98819.56;5020812;27;99288;-60
2020/12/05 07:38:40;;;;;;;7.57;5.30;;;;;;;13.46;54.37;98839.44;5022233;27;98021;-61
2020/12/05 07:41:22;;;;;;;6.82;5.55;;;;;;;13.46;54.50;98836.75;5021873;27;98021;-60
2020/12/05 07:43:48;;;;;;;6.67;5.37;;;;;;;13.67;54.50;98860.38;5021224;27;111166;-60
2020/12/05 07:46:15;;;;;;;6.45;5.20;;;;;;;13.83;54.01;98879.56;5001132;27;127973;-59
2020/12/05 07:48:41;;;;;;;6.43;5.53;;;;;;;13.96;54.05;98890.16;5021139;27;126425;-59
2020/12/05 07:51:15;;;;;;;6.25;5.15;;;;;;;13.99;54.20;98896.84;5020973;27;111189;-60
2020/12/05 07:53:41;;;;;;;7.20;5.82;;;;;;;13.96;54.79;98898.28;5021184;27;98570;-59
2020/12/05 07:56:19;;;;;;;6.05;5.40;;;;;;;14.02;54.86;98898.09;5020420;27;108029;-60
2020/12/05 07:58:55;;;;;;;7.80;6.40;;;;;;;14.30;53.41;98895.69;5022055;27;97821;-60
2020/12/05 08:01:41;;;;;;;7.97;6.18;;;;;;;14.54;53.20;98897.78;5021684;27;97986;-60
2020/12/05 08:04:40;;;;;;;7.25;6.47;;;;;;;14.93;52.32;98897.28;5018855;27;116535;-60
2020/12/05 08:07:18;;;;;;;6.57;5.88;;;;;;;15.60;51.69;98889.88;5020295;27;98427;-59
2020/12/05 08:09:44;;;;;;;6.32;5.45;;;;;;;16.13;50.46;98893.50;5003445;27;116068;-60
2020/12/05 08:12:14;;;;;;;6.43;5.68;;;;;;;16.55;50.01;98893.19;4985072;27;118346;-59
2020/12/05 08:14:43;;;;;;;7.20;6.00;;;;;;;16.81;50.15;98900.94;5021107;27;98715;-60
2020/12/05 08:17:10;;;;;;;6.32;5.70;;;;;;;16.73;50.95;98910.03;5020927;27;99288;-60
2020/12/05 08:19:41;;;;;;;6.70;6.00;;;;;;;16.97;50.89;98906.44;5002610;27;107164;-60
2020/12/05 08:22:10;;;;;;;6.78;5.50;;;;;;;17.26;50.70;98921.63;5021798;27;97811;-59
2020/12/05 08:24:38;;;;;;;6.03;5.43;;;;;;;17.64;50.69;98928.41;5002697;27;98925;-60
2020/12/05 08:27:04;;;;;;;7.03;6.20;;;;;;;18.12;50.06;98957.28;5002058;27;98946;-60
2020/12/05 08:29:30;;;;;;;6.80;5.53;;;;;;;18.59;49.90;98958.31;5018951;27;98036;-59
2020/12/05 08:31:56;;;;;;;6.15;5.55;;;;;;;18.97;49.71;98941.19;5001920;27;117936;-59
2020/12/05 08:34:30;;;;;;;6.10;5.50;;;;;;;19.32;49.89;98940.31;5017831;27;129012;-61
2020/12/05 08:36:56;;;;;;;6.03;5.45;;;;;;;19.59;50.16;98935.72;5020217;27;116524;-61
2020/12/05 08:39:22;;;;;;;6.22;5.63;;;;;;;19.48;50.91;98938.25;5001751;27;98880;-61
2020/12/05 08:41:50;;;;;;;6.43;5.75;;;;;;;18.84;53.22;98924.19;5018893;27;102688;-59
2020/12/05 08:44:17;;;;;;;6.97;6.28;;;;;;;18.41;53.86;98887.00;5019016;27;98027;-61
2020/12/05 08:46:43;;;;;;;6.55;5.80;;;;;;;18.76;53.90;98880.72;5021010;27;98115;-61
2020/12/05 08:49:20;;;;;;;6.20;5.60;;;;;;;19.08;53.98;98914.09;5021154;27;97901;-60
2020/12/05 08:51:49;;;;;;;6.20;5.60;;;;;;;19.30;54.19;98989.84;5021417;27;97904;-59
2020/12/05 08:54:16;;;;;;;6.93;6.03;;;;;;;19.45;55.41;99023.66;5020583;27;99090;-59
2020/12/05 08:56:42;;;;;;;6.63;5.93;;;;;;;19.64;55.41;99017.41;5021675;27;98626;-61
2020/12/05 08:59:08;;;;;;;7.00;6.13;;;;;;;19.74;56.12;99027.00;5001863;27;98126;-59
2020/12/05 09:01:44;;;;;;;6.90;6.20;;;;;;;19.85;56.02;99045.16;5020914;27;97946;-61
2020/12/05 09:04:12;;;;;;;7.32;6.57;;;;;;;19.96;56.61;99047.28;5018731;27;127916;-61
2020/12/05 09:06:39;;;;;;;7.00;6.30;;;;;;;19.99;56.60;99041.09;5018589;27;98580;-59
2020/12/05 09:09:05;;;;;;;6.90;6.10;;;;;;;19.88;57.52;99051.03;5018797;27;98207;-59
2020/12/05 09:11:31;;;;;;;6.85;6.15;;;;;;;19.60;57.98;99047.38;5021327;27;97906;-59
2020/12/05 09:13:57;;;;;;;7.28;6.57;;;;;;;19.51;57.54;99044.09;5020713;27;99475;-61
2020/12/05 09:16:33;;;;;;;6.82;6.13;;;;;;;19.43;58.28;99053.31;5020128;27;97841;-61
2020/12/05 09:19:00;;;;;;;6.70;6.05;;;;;;;19.21;58.75;99089.53;5020564;27;97996;-61
2020/12/05 09:21:26;;;;;;;6.80;6.10;;;;;;;18.84;58.85;99104.34;5018622;27;98203;-61
2020/12/05 09:24:03;;;;;;;6.20;5.60;;;;;;;18.54;58.75;99109.44;5019344;27;124968;-61
2020/12/05 09:26:30;;;;;;;6.25;5.65;;;;;;;18.32;58.97;99101.88;5020645;27;98330;-61
2020/12/05 09:28:56;;;;;;;6.00;5.32;;;;;;;18.15;59.28;99109.25;5019402;27;118410;-61
2020/12/05 09:31:22;;;;;;;6.65;5.95;;;;;;;18.06;59.38;99124.19;5019104;27;118611;-59
2020/12/05 09:33:48;;;;;;;6.30;5.70;;;;;;;17.91;59.46;99125.72;5021136;27;126808;-59
2020/12/05 09:36:14;;;;;;;6.60;5.60;;;;;;;17.78;59.64;99141.34;5022278;27;128719;-61
2020/12/05 09:38:40;;;;;;;6.78;5.43;;;;;;;17.67;59.97;99154.63;5023202;27;126626;-59
2020/12/05 09:41:06;;;;;;;6.68;5.95;;;;;;;17.62;59.59;99173.16;5023407;27;117223;-61
2020/12/05 09:43:32;;;;;;;8.32;5.80;;;;;;;17.60;59.48;99161.81;5022594;27;127773;-59
2020/12/05 09:45:58;;;;;;;6.45;5.82;;;;;;;17.65;59.43;99170.56;5022721;27;123620;-59
2020/12/05 09:48:24;;;;;;;6.63;5.93;;;;;;;17.74;59.33;99177.78;5023054;27;127554;-61
2020/12/05 09:50:50;;;;;;;6.60;5.80;;;;;;;17.82;59.20;99158.59;5023382;27;116731;-62
2020/12/05 09:53:16;;;;;;;6.50;5.80;;;;;;;17.96;59.13;99141.03;5021359;27;98292;-61
2020/12/05 09:55:42;;;;;;;6.25;5.57;;;;;;;18.09;59.35;99143.38;5023323;27;98360;-61
2020/12/05 09:58:08;;;;;;;7.10;6.30;;;;;;;18.03;59.92;99141.22;5022628;27;125903;-59
2020/12/05 10:00:34;;;;;;;6.10;5.40;;;;;;;17.95;60.01;99162.06;5022694;27;114430;-60
2020/12/05 10:03:00;;;;;;;6.65;5.60;;;;;;;17.80;60.41;99198.22;5022972;27;98337;-59
2020/12/05 10:05:26;;;;;;;7.72;6.25;;;;;;;17.72;60.68;99220.94;5022283;27;128144;-59
2020/12/05 10:07:52;;;;;;;6.78;6.10;;;;;;;17.57;60.84;99214.28;5020549;27;126897;-61
2020/12/05 10:10:19;;;;;;;6.90;6.15;;;;;;;17.44;61.03;99246.19;5022596;27;100081;-59
2020/12/05 10:12:45;;;;;;;6.72;6.00;;;;;;;17.34;61.22;99220.22;5023280;27;99269;-61
2020/12/05 10:15:14;;;;;;;7.10;5.65;;;;;;;17.25;61.29;99214.09;5020399;27;111366;-62
2020/12/05 10:17:42;;;;;;;7.10;6.00;;;;;;;17.14;61.66;99183.81;4987246;27;99822;-59
2020/12/05 10:20:08;;;;;;;6.93;5.75;;;;;;;17.08;61.75;99168.03;5004693;27;97679;-61
2020/12/05 10:22:35;;;;;;;6.68;5.70;;;;;;;17.03;61.74;99192.78;5022740;27;98486;-59
2020/12/05 10:25:02;;;;;;;5.93;5.32;;;;;;;16.97;61.77;99191.41;5022963;27;98026;-59
2020/12/05 10:27:28;;;;;;;7.93;5.95;;;;;;;16.93;61.77;99177.69;5022201;27;115207;-61
2020/12/05 10:29:54;;;;;;;7.03;5.80;;;;;;;16.89;62.16;99176.78;5022524;27;117824;-59
2020/12/05 10:32:20;;;;;;;6.30;5.68;;;;;;;16.82;61.97;99147.44;5022990;27;117079;-59
2020/12/05 10:34:46;;;;;;;6.35;5.43;;;;;;;16.84;61.84;99149.81;5021775;27;128468;-59
2020/12/05 10:37:12;;;;;;;7.15;5.80;;;;;;;16.83;61.85;99164.56;5022732;27;97997;-62
2020/12/05 10:39:38;;;;;;;6.13;5.45;;;;;;;16.84;62.14;99182.44;5022277;27;118254;-61
2020/12/05 10:42:04;;;;;;;6.63;5.78;;;;;;;16.84;62.11;99193.34;5021495;27;129534;-59
2020/12/05 10:44:30;;;;;;;5.97;5.07;;;;;;;16.87;61.95;99209.00;4985896;27;127519;-61
2020/12/05 10:46:56;;;;;;;6.40;5.55;;;;;;;16.85;62.16;99228.38;5019905;27;122489;-59
2020/12/05 10:49:23;;;;;;;6.22;5.43;;;;;;;16.76;61.95;99235.84;5022148;27;117982;-59
2020/12/05 10:51:49;;;;;;;6.43;5.50;;;;;;;16.70;62.06;99239.88;5022276;27;98718;-59
2020/12/05 10:54:15;;;;;;;6.63;5.55;;;;;;;16.65;62.54;99248.25;5021573;27;128345;-59
2020/12/05 10:56:41;;;;;;;6.25;5.35;;;;;;;16.62;62.28;99233.44;5022705;27;98266;-61
2020/12/05 10:59:07;;;;;;;6.65;5.55;;;;;;;16.56;62.21;99253.00;5021279;27;118511;-61
2020/12/05 11:01:33;;;;;;;6.80;5.65;;;;;;;16.54;62.49;99266.94;5022039;27;107771;-61
2020/12/05 11:03:59;;;;;;;6.25;5.65;;;;;;;16.48;62.63;99256.63;5022994;27;98714;-61
2020/12/05 11:06:28;;;;;;;6.97;6.10;;;;;;;16.47;62.27;99268.63;5020752;27;125319;-60
2020/12/05 11:08:54;;;;;;;7.28;6.18;;;;;;;16.50;62.11;99274.16;5020972;27;98171;-62
2020/12/05 11:11:20;;;;;;;7.95;6.15;;;;;;;16.54;61.90;99275.09;5019380;27;110922;-59
2020/12/05 11:13:47;;;;;;;7.25;5.72;;;;;;;16.61;61.44;99259.03;5021845;27;105957;-61
2020/12/05 11:16:18;;;;;;;7.30;6.40;;;;;;;16.60;61.41;99256.66;5021465;27;98314;-61
2020/12/05 11:18:44;;;;;;;6.57;5.87;;;;;;;16.61;61.53;99250.06;5004536;27;98061;-61
2020/12/05 11:21:10;;;;;;;7.38;6.30;;;;;;;16.66;60.66;99258.00;5022168;27;99301;-59
2020/12/05 11:23:37;;;;;;;7.50;6.30;;;;;;;16.69;61.27;99260.06;5021837;27;127043;-61
2020/12/05 11:26:03;;;;;;;6.95;6.25;;;;;;;16.71;61.02;99260.53;5020448;27;127377;-61
2020/12/05 11:28:29;;;;;;;7.30;6.55;;;;;;;16.71;61.24;99263.25;5021391;27;117294;-61
2020/12/05 11:30:55;;;;;;;7.43;6.40;;;;;;;16.72;61.05;99264.03;5021145;27;115993;-59
2020/12/05 11:33:21;;;;;;;8.07;6.63;;;;;;;16.73;61.05;99263.72;5021624;27;119062;-59
2020/12/05 11:35:47;;;;;;;8.80;6.60;;;;;;;16.77;60.88;99263.84;5020558;27;127371;-61